createdAt,value
2022-07-28T00:02:18.180Z,12.80
2022-07-28T00:04:47.799Z,12.70
2022-07-28T00:07:17.108Z,12.70
2022-07-28T00:09:46.566Z,12.70
2022-07-28T00:12:15.889Z,12.70
2022-07-28T00:14:45.625Z,12.60
2022-07-28T00:17:16.826Z,12.60
2022-07-28T00:19:46.086Z,12.50
2022-07-28T00:22:15.726Z,12.40
2022-07-28T00:24:45.345Z,12.40
2022-07-28T00:27:15.147Z,12.40
2022-07-28T00:29:50.623Z,12.40
2022-07-28T00:32:22.141Z,12.50
2022-07-28T00:34:52.923Z,12.50
2022-07-28T00:37:23.205Z,12.50
2022-07-28T00:39:52.845Z,12.60
2022-07-28T00:42:24.982Z,12.60
2022-07-28T00:44:54.253Z,12.70
2022-07-28T00:47:25.045Z,12.70
2022-07-28T00:49:54.627Z,12.70
2022-07-28T00:52:24.447Z,12.70
2022-07-28T00:54:54.545Z,12.80
2022-07-28T00:57:24.027Z,12.80
2022-07-28T00:59:53.687Z,12.80
2022-07-28T01:02:24.967Z,12.80
2022-07-28T01:04:54.627Z,12.70
2022-07-28T01:07:34.518Z,12.80
2022-07-28T01:10:10.266Z,12.80
2022-07-28T01:12:52.786Z,12.80
2022-07-28T01:15:27.869Z,12.80
2022-07-28T01:18:04.565Z,12.80
2022-07-28T01:20:40.877Z,12.80
2022-07-28T01:23:59.605Z,12.80
2022-07-28T01:26:45.062Z,12.70
2022-07-28T01:29:29.894Z,12.60
2022-07-28T01:32:05.528Z,12.50
2022-07-28T01:34:41.194Z,12.50
2022-07-28T01:37:14.726Z,12.40
2022-07-28T01:39:45.526Z,12.30
2022-07-28T01:42:18.197Z,12.20
2022-07-28T01:44:50.733Z,12.10
2022-07-28T01:47:23.608Z,12.10
2022-07-28T01:49:54.441Z,12.00
2022-07-28T01:52:25.991Z,12.00
2022-07-28T01:54:56.926Z,11.90
2022-07-28T01:57:29.807Z,11.90
2022-07-28T02:00:00.611Z,11.90
2022-07-28T02:02:32.865Z,11.90
2022-07-28T02:05:02.907Z,11.90
2022-07-28T02:07:33.905Z,12.00
2022-07-28T02:10:04.467Z,11.90
2022-07-28T02:12:34.705Z,11.80
2022-07-28T02:15:07.758Z,11.80
2022-07-28T02:17:39.527Z,11.70
2022-07-28T02:20:12.204Z,11.60
2022-07-28T02:22:43.245Z,11.50
2022-07-28T02:25:13.285Z,11.50
2022-07-28T02:27:46.206Z,11.40
2022-07-28T02:30:19.592Z,11.30
2022-07-28T02:32:52.896Z,11.30
2022-07-28T02:35:31.855Z,11.30
2022-07-28T02:38:03.868Z,11.20
2022-07-28T02:40:36.845Z,11.20
2022-07-28T02:43:09.087Z,11.20
2022-07-28T02:45:42.194Z,11.10
2022-07-28T02:48:16.069Z,11.10
2022-07-28T02:50:47.460Z,11.10
2022-07-28T02:53:18.116Z,11.10
2022-07-28T02:55:49.589Z,11.00
2022-07-28T02:58:23.049Z,11.00
2022-07-28T03:00:53.404Z,11.00
2022-07-28T03:03:24.751Z,11.00
2022-07-28T03:05:54.263Z,11.00
2022-07-28T03:08:23.347Z,11.10
2022-07-28T03:11:07.353Z,11.10
2022-07-28T03:13:36.405Z,11.10
2022-07-28T03:16:05.625Z,11.10
2022-07-28T03:18:36.108Z,11.10
2022-07-28T03:21:05.294Z,11.20
2022-07-28T03:23:40.066Z,11.10
2022-07-28T03:26:14.806Z,11.20
2022-07-28T03:28:45.469Z,11.20
2022-07-28T03:31:17.258Z,11.30
2022-07-28T03:33:48.786Z,11.30
2022-07-28T03:36:23.932Z,11.30
2022-07-28T03:38:59.606Z,11.40
2022-07-28T03:41:29.901Z,11.50
2022-07-28T03:44:00.457Z,11.50
2022-07-28T03:46:29.570Z,11.60
2022-07-28T03:49:00.433Z,11.60
2022-07-28T03:51:30.368Z,11.70
2022-07-28T03:53:59.424Z,11.70
2022-07-28T03:56:28.448Z,11.80
2022-07-28T03:58:58.646Z,11.90
2022-07-28T04:01:28.186Z,12.00
2022-07-28T04:03:58.927Z,12.10
2022-07-28T04:06:27.945Z,12.10
2022-07-28T04:08:57.534Z,12.20
2022-07-28T04:11:26.721Z,12.30
2022-07-28T04:13:55.762Z,12.30
2022-07-28T04:16:24.897Z,12.40
2022-07-28T04:18:54.027Z,12.50
2022-07-28T04:21:24.517Z,12.60
2022-07-28T04:23:57.250Z,12.70
2022-07-28T04:26:29.225Z,12.80
2022-07-28T04:28:58.287Z,12.90
2022-07-28T04:31:27.241Z,13.00
2022-07-28T04:33:56.288Z,13.20
2022-07-28T04:36:27.766Z,13.40
2022-07-28T04:38:59.726Z,13.60
2022-07-28T04:41:28.774Z,13.70
2022-07-28T04:43:59.866Z,13.80
2022-07-28T04:46:29.124Z,13.80
2022-07-28T04:48:58.270Z,13.80
2022-07-28T04:51:28.846Z,13.90
2022-07-28T04:53:58.665Z,14.00
2022-07-28T04:56:27.837Z,14.10
2022-07-28T04:58:58.898Z,14.20
2022-07-28T05:01:28.851Z,14.30
2022-07-28T05:03:58.127Z,14.40
2022-07-28T05:06:28.587Z,14.60
2022-07-28T05:08:57.613Z,14.70
2022-07-28T05:11:26.586Z,14.70
2022-07-28T05:13:56.293Z,14.90
2022-07-28T05:16:25.366Z,14.90
2022-07-28T05:18:56.469Z,15.10
2022-07-28T05:21:25.736Z,15.10
2022-07-28T05:23:56.510Z,15.20
2022-07-28T05:26:26.340Z,15.30
2022-07-28T05:28:55.275Z,15.40
2022-07-28T05:31:26.410Z,15.50
2022-07-28T05:33:55.761Z,15.50
2022-07-28T05:36:25.045Z,15.70
2022-07-28T05:38:56.327Z,15.80
2022-07-28T05:41:26.326Z,15.90
2022-07-28T05:43:55.546Z,16.00
2022-07-28T05:46:24.656Z,16.10
2022-07-28T05:48:54.088Z,16.20
2022-07-28T05:51:23.737Z,16.30
2022-07-28T05:53:53.871Z,16.40
2022-07-28T05:56:24.367Z,16.50
2022-07-28T05:58:53.597Z,16.60
2022-07-28T06:01:22.691Z,16.70
2022-07-28T06:04:10.088Z,16.70
2022-07-28T06:06:42.707Z,16.80
2022-07-28T06:09:13.799Z,16.90
2022-07-28T06:11:44.338Z,17.00
2022-07-28T06:14:13.442Z,17.10
2022-07-28T06:16:42.885Z,17.10
2022-07-28T06:19:12.138Z,17.20
2022-07-28T06:21:41.651Z,17.30
2022-07-28T06:24:11.480Z,17.40
2022-07-28T06:26:44.602Z,17.40
2022-07-28T06:29:15.586Z,17.40
2022-07-28T06:31:45.010Z,17.60
2022-07-28T06:34:14.347Z,17.70
2022-07-28T06:36:43.567Z,17.90
2022-07-28T06:39:12.928Z,18.10
2022-07-28T06:41:44.797Z,18.00
2022-07-28T06:44:15.813Z,18.20
2022-07-28T06:46:45.210Z,18.20
2022-07-28T06:49:15.898Z,18.20
2022-07-28T06:51:45.239Z,18.40
2022-07-28T06:54:14.714Z,18.50
2022-07-28T06:56:45.487Z,18.50
2022-07-28T06:59:20.014Z,18.50
2022-07-28T07:01:49.429Z,18.70
2022-07-28T07:04:19.182Z,19.00
2022-07-28T07:06:48.558Z,19.10
2022-07-28T07:09:17.568Z,19.20
2022-07-28T07:11:46.855Z,19.30
2022-07-28T07:14:16.218Z,19.20
2022-07-28T07:16:47.101Z,19.20
2022-07-28T07:19:16.237Z,19.00
2022-07-28T07:21:45.607Z,19.00
2022-07-28T07:24:15.095Z,18.90
2022-07-28T07:26:45.634Z,19.00
2022-07-28T07:29:14.727Z,19.10
2022-07-28T07:31:44.028Z,19.10
2022-07-28T07:34:14.752Z,19.10
2022-07-28T07:36:43.970Z,19.10
2022-07-28T07:39:12.924Z,19.10
2022-07-28T07:41:42.585Z,19.10
2022-07-28T07:44:11.911Z,19.10
2022-07-28T07:46:41.298Z,19.00
2022-07-28T07:49:11.475Z,19.00
2022-07-28T07:51:42.205Z,18.90
2022-07-28T07:54:11.420Z,19.20
2022-07-28T07:56:40.771Z,19.10
2022-07-28T07:59:10.144Z,19.30
2022-07-28T08:01:40.458Z,19.50
2022-07-28T08:04:09.831Z,19.60
2022-07-28T08:06:39.101Z,19.60
2022-07-28T08:09:10.953Z,19.80
2022-07-28T08:11:40.174Z,19.80
2022-07-28T08:14:09.205Z,20.00
2022-07-28T08:16:38.742Z,20.10
2022-07-28T08:19:09.038Z,20.10
2022-07-28T08:21:38.356Z,19.60
2022-07-28T08:24:08.089Z,19.80
2022-07-28T08:26:38.732Z,19.70
2022-07-28T08:29:07.774Z,19.70
2022-07-28T08:31:36.990Z,19.80
2022-07-28T08:34:31.385Z,19.90
2022-07-28T08:36:56.531Z,19.90
2022-07-28T08:39:25.677Z,20.00
2022-07-28T08:42:01.310Z,20.20
2022-07-28T08:44:35.335Z,20.40
2022-07-28T08:47:05.344Z,20.30
2022-07-28T08:49:35.554Z,20.30
2022-07-28T08:52:11.377Z,20.30
2022-07-28T08:54:44.272Z,20.20
2022-07-28T08:57:19.728Z,20.10
2022-07-28T08:59:50.874Z,20.30
2022-07-28T09:02:21.763Z,20.20
2022-07-28T09:04:51.273Z,20.50
2022-07-28T09:07:20.747Z,20.80
2022-07-28T09:09:50.694Z,21.10
2022-07-28T09:12:27.962Z,21.30
2022-07-28T09:14:57.156Z,20.90
2022-07-28T09:17:26.487Z,20.90
2022-07-28T09:19:55.608Z,20.80
2022-07-28T09:22:24.866Z,21.40
2022-07-28T09:24:54.165Z,21.40
2022-07-28T09:27:23.205Z,21.50
2022-07-28T09:30:02.745Z,21.70
2022-07-28T09:32:31.885Z,22.30
2022-07-28T09:35:02.004Z,23.00
2022-07-28T09:37:31.246Z,23.40
2022-07-28T09:40:13.253Z,24.20
2022-07-28T09:42:48.616Z,24.40
2022-07-28T09:45:24.034Z,24.40
2022-07-28T09:48:18.331Z,24.00
2022-07-28T09:50:47.505Z,23.80
2022-07-28T09:53:34.209Z,23.50
2022-07-28T09:56:04.100Z,23.50
2022-07-28T09:58:33.449Z,23.60
2022-07-28T10:01:11.501Z,23.70
2022-07-28T10:03:43.285Z,24.10
2022-07-28T10:06:16.850Z,24.20
2022-07-28T10:08:48.946Z,24.70
2022-07-28T10:11:20.786Z,24.70
2022-07-28T10:14:01.026Z,24.60
2022-07-28T10:16:33.577Z,24.40
2022-07-28T10:19:04.245Z,24.30
2022-07-28T10:21:37.425Z,24.20
2022-07-28T10:24:08.146Z,24.30
2022-07-28T10:26:42.165Z,24.40
2022-07-28T10:29:35.886Z,24.30
2022-07-28T10:32:08.625Z,24.40
2022-07-28T10:34:41.506Z,24.30
2022-07-28T10:37:18.930Z,24.40
2022-07-28T10:39:53.579Z,24.60
2022-07-28T10:42:23.310Z,24.90
2022-07-28T10:44:54.674Z,25.30
2022-07-28T10:47:39.780Z,25.70
2022-07-28T10:50:12.253Z,26.30
2022-07-28T10:52:56.099Z,26.00
2022-07-28T10:55:49.894Z,25.50
2022-07-28T10:58:43.009Z,25.60
2022-07-28T11:01:51.607Z,25.50
2022-07-28T11:05:03.896Z,25.20
2022-07-28T11:07:42.678Z,25.10
2022-07-28T11:10:28.866Z,24.80
2022-07-28T11:13:01.767Z,24.70
2022-07-28T11:15:38.825Z,24.90
2022-07-28T11:18:15.588Z,25.20
2022-07-28T11:21:11.078Z,25.90
2022-07-28T11:24:02.925Z,26.40
2022-07-28T11:26:48.996Z,26.20
2022-07-28T11:29:52.103Z,26.50
2022-07-28T11:32:35.912Z,26.00
2022-07-28T11:35:15.806Z,26.30
2022-07-28T11:38:18.214Z,26.00
2022-07-28T11:41:36.274Z,25.60
2022-07-28T11:44:32.673Z,25.70
2022-07-28T11:47:21.865Z,25.80
2022-07-28T11:50:18.094Z,25.40
2022-07-28T11:53:01.426Z,25.70
2022-07-28T11:55:55.247Z,25.90
2022-07-28T11:58:39.626Z,26.10
2022-07-28T12:01:17.713Z,26.40
2022-07-28T12:03:59.134Z,26.50
2022-07-28T12:06:38.761Z,26.80
2022-07-28T12:12:07.667Z,26.20
2022-07-28T12:14:51.105Z,26.00
2022-07-28T12:17:21.366Z,26.00
2022-07-28T12:19:53.285Z,25.70
2022-07-28T12:22:26.068Z,25.40
2022-07-28T12:25:05.364Z,25.40
2022-07-28T12:27:46.987Z,25.70
2022-07-28T12:30:29.920Z,25.60
2022-07-28T12:33:02.669Z,25.60
2022-07-28T12:35:35.177Z,25.50
2022-07-28T12:38:07.616Z,25.20
2022-07-28T12:40:42.188Z,25.30
2022-07-28T12:43:17.754Z,25.40
2022-07-28T12:45:49.365Z,25.50
2022-07-28T12:48:20.494Z,25.80
2022-07-28T12:50:50.127Z,26.10
2022-07-28T12:53:22.326Z,26.30
2022-07-28T12:56:01.088Z,26.60
2022-07-28T12:58:30.906Z,27.30
2022-07-28T13:01:02.062Z,27.10
2022-07-28T13:03:31.646Z,26.90
2022-07-28T13:06:12.232Z,27.10
2022-07-28T13:08:44.518Z,26.90
2022-07-28T13:11:42.585Z,27.10
2022-07-28T13:14:05.026Z,27.40
2022-07-28T13:16:37.158Z,27.60
2022-07-28T13:19:06.366Z,27.80
2022-07-28T13:21:58.377Z,28.20
2022-07-28T13:24:29.806Z,26.80
2022-07-28T13:27:00.033Z,26.50
2022-07-28T13:29:29.178Z,26.80
2022-07-28T13:32:00.020Z,27.80
2022-07-28T13:34:29.263Z,30.60
2022-07-28T13:36:58.748Z,31.60
2022-07-28T13:39:27.974Z,29.10
2022-07-28T13:41:59.221Z,28.10
2022-07-28T13:44:29.188Z,27.60
2022-07-28T13:47:06.086Z,28.40
2022-07-28T13:49:37.833Z,31.70
2022-07-28T13:52:13.257Z,32.60
2022-07-28T13:54:42.515Z,33.00
2022-07-28T13:57:12.310Z,29.60
2022-07-28T13:59:44.072Z,29.50
2022-07-28T14:02:16.184Z,30.20
2022-07-28T14:04:45.918Z,28.50
2022-07-28T14:07:20.441Z,27.60
2022-07-28T14:09:51.949Z,26.60
2022-07-28T14:12:21.325Z,26.40
2022-07-28T14:14:50.834Z,27.60
2022-07-28T14:17:43.576Z,27.70
2022-07-28T14:20:13.842Z,28.40
2022-07-28T14:22:43.524Z,28.10
2022-07-28T14:25:13.452Z,28.30
2022-07-28T14:27:49.762Z,27.90
2022-07-28T14:30:19.070Z,27.70
2022-07-28T14:32:49.745Z,27.80
2022-07-28T14:35:18.965Z,28.10
2022-07-28T14:40:39.434Z,28.60
2022-07-28T14:43:09.829Z,28.10
2022-07-28T14:46:00.463Z,28.00
2022-07-28T14:48:31.405Z,27.60
2022-07-28T14:51:01.706Z,27.70
2022-07-28T14:53:30.925Z,27.90
2022-07-28T14:55:59.950Z,27.90
2022-07-28T14:58:29.087Z,27.50
2022-07-28T15:00:58.177Z,27.20
2022-07-28T15:03:35.744Z,27.30
2022-07-28T15:06:05.929Z,27.20
2022-07-28T15:08:35.546Z,27.00
2022-07-28T15:11:04.826Z,26.50
2022-07-28T15:13:34.367Z,26.00
2022-07-28T15:16:03.771Z,25.70
2022-07-28T15:18:34.516Z,25.50
2022-07-28T15:21:06.947Z,25.30
2022-07-28T15:23:36.327Z,25.10
2022-07-28T15:26:05.586Z,24.90
2022-07-28T15:28:35.756Z,24.60
2022-07-28T15:31:05.531Z,24.50
2022-07-28T15:33:48.203Z,24.40
2022-07-28T15:36:20.188Z,24.20
2022-07-28T15:38:50.889Z,24.70
2022-07-28T15:41:20.511Z,24.50
2022-07-28T15:43:50.706Z,24.40
2022-07-28T15:46:19.911Z,24.10
2022-07-28T15:48:53.622Z,24.10
2022-07-28T15:51:26.073Z,23.80
2022-07-28T15:54:01.135Z,23.60
2022-07-28T15:56:32.247Z,23.30
2022-07-28T15:59:02.021Z,23.20
2022-07-28T16:01:31.558Z,22.90
2022-07-28T16:04:04.046Z,22.60
2022-07-28T16:06:47.287Z,22.40
2022-07-28T16:09:16.687Z,22.10
2022-07-28T16:11:45.974Z,21.80
2022-07-28T16:14:16.641Z,21.50
2022-07-28T16:16:46.949Z,21.20
2022-07-28T16:19:38.721Z,21.20
2022-07-28T16:22:06.748Z,21.10
2022-07-28T16:24:36.876Z,21.10
2022-07-28T16:27:07.117Z,21.00
2022-07-28T16:29:36.415Z,20.90
2022-07-28T16:32:07.891Z,20.80
2022-07-28T16:34:38.735Z,20.80
2022-07-28T16:37:08.061Z,20.80
2022-07-28T16:39:50.407Z,20.70
2022-07-28T16:42:19.860Z,20.70
2022-07-28T16:44:49.386Z,20.80
2022-07-28T16:47:18.617Z,20.80
2022-07-28T16:49:49.891Z,20.90
2022-07-28T16:52:19.127Z,20.90
2022-07-28T16:54:48.395Z,21.10
2022-07-28T16:57:20.386Z,21.10
2022-07-28T16:59:50.546Z,21.10
2022-07-28T17:02:20.181Z,21.10
2022-07-28T17:04:50.876Z,21.10
2022-07-28T17:07:20.146Z,20.80
2022-07-28T17:09:49.869Z,20.70
2022-07-28T17:12:18.885Z,20.60
2022-07-28T17:14:48.138Z,20.60
2022-07-28T17:17:18.800Z,20.70
2022-07-28T17:19:50.426Z,20.70
2022-07-28T17:22:19.866Z,20.70
2022-07-28T17:24:48.874Z,20.70
2022-07-28T17:27:37.912Z,20.70
2022-07-28T17:30:08.661Z,20.70
2022-07-28T17:32:37.745Z,20.70
2022-07-28T17:35:10.526Z,20.70
2022-07-28T17:37:59.540Z,20.70
2022-07-28T17:40:28.927Z,20.60
2022-07-28T17:42:58.265Z,20.50
2022-07-28T17:45:27.953Z,20.30
2022-07-28T17:47:57.044Z,20.10
2022-07-28T17:50:27.802Z,19.90
2022-07-28T17:52:56.915Z,19.70
2022-07-28T17:56:00.687Z,19.50
2022-07-28T17:58:32.316Z,19.40
2022-07-28T18:01:09.738Z,19.20
2022-07-28T18:03:58.332Z,19.00
2022-07-28T18:06:32.778Z,19.00
2022-07-28T18:09:06.443Z,18.80
2022-07-28T18:11:57.101Z,18.70
2022-07-28T18:14:28.636Z,18.70
2022-07-28T18:16:59.261Z,18.60
2022-07-28T18:19:28.506Z,18.60
2022-07-28T18:21:59.173Z,18.50
2022-07-28T18:24:34.289Z,18.40
2022-07-28T18:27:04.113Z,18.30
2022-07-28T18:29:42.053Z,18.20
2022-07-28T18:32:12.668Z,18.20
2022-07-28T18:34:42.162Z,18.10
2022-07-28T18:37:22.534Z,18.10
2022-07-28T18:40:11.824Z,18.00
2022-07-28T18:42:55.405Z,17.90
2022-07-28T18:45:34.620Z,17.80
2022-07-28T18:48:07.110Z,17.60
2022-07-28T18:50:40.887Z,17.40
2022-07-28T18:53:11.629Z,17.30
2022-07-28T18:55:43.467Z,17.10
2022-07-28T18:58:13.030Z,17.00
2022-07-28T19:00:42.045Z,16.90
2022-07-28T19:03:13.634Z,16.70
2022-07-28T19:05:45.999Z,16.60
2022-07-28T19:08:20.566Z,16.50
2022-07-28T19:10:50.917Z,16.40
2022-07-28T19:13:19.887Z,16.30
2022-07-28T19:15:49.164Z,16.20
2022-07-28T19:18:25.953Z,16.10
2022-07-28T19:20:55.740Z,16.00
2022-07-28T19:23:26.404Z,15.90
2022-07-28T19:25:56.444Z,15.80
2022-07-28T19:28:25.760Z,15.70
2022-07-28T19:30:57.051Z,15.60
2022-07-28T19:33:30.284Z,15.50
2022-07-28T19:36:03.312Z,15.50
2022-07-28T19:38:36.321Z,15.50
2022-07-28T19:41:06.438Z,15.40
2022-07-28T19:43:36.925Z,15.30
2022-07-28T19:46:06.364Z,15.30
2022-07-28T19:48:35.753Z,15.20
2022-07-28T19:51:05.615Z,15.10
2022-07-28T19:53:42.715Z,15.10
2022-07-28T19:56:13.677Z,15.00
2022-07-28T19:58:45.861Z,14.90
2022-07-28T20:01:17.037Z,14.90
2022-07-28T20:04:00.931Z,14.90
2022-07-28T20:06:35.135Z,14.80
2022-07-28T20:09:07.745Z,14.80
2022-07-28T20:11:40.336Z,14.70
2022-07-28T20:14:09.415Z,14.70
2022-07-28T20:16:38.446Z,14.70
2022-07-28T20:19:09.605Z,14.60
2022-07-28T20:21:39.661Z,14.70
2022-07-28T20:24:11.511Z,14.60
2022-07-28T20:26:40.686Z,14.60
2022-07-28T20:29:09.733Z,14.60
2022-07-28T20:31:38.984Z,14.50
2022-07-28T20:34:08.451Z,14.50
2022-07-28T20:36:37.586Z,14.50
2022-07-28T20:39:27.463Z,14.50
2022-07-28T20:41:58.016Z,14.50
2022-07-28T20:44:29.720Z,14.50
2022-07-28T20:47:01.019Z,14.40
2022-07-28T20:49:30.516Z,14.40
2022-07-28T20:52:00.284Z,14.40
2022-07-28T20:54:29.607Z,14.30
2022-07-28T20:57:00.656Z,14.30
2022-07-28T20:59:29.826Z,14.30
2022-07-28T21:01:59.039Z,14.30
2022-07-28T21:04:28.360Z,14.20
2022-07-28T21:07:02.117Z,14.20
2022-07-28T21:09:34.342Z,14.20
2022-07-28T21:12:05.906Z,14.20
2022-07-28T21:14:34.964Z,14.10
2022-07-28T21:17:04.193Z,14.10
2022-07-28T21:19:33.826Z,14.10
2022-07-28T21:22:02.904Z,14.00
2022-07-28T21:24:31.904Z,14.00
2022-07-28T21:27:01.123Z,14.00
2022-07-28T21:29:30.593Z,14.00
2022-07-28T21:32:05.227Z,14.00
2022-07-28T21:34:35.845Z,14.00
2022-07-28T21:37:06.382Z,14.00
2022-07-28T21:39:36.986Z,13.90
2022-07-28T21:42:08.452Z,13.90
2022-07-28T21:44:39.676Z,13.90
2022-07-28T21:47:09.239Z,13.90
2022-07-28T21:52:38.554Z,13.90
2022-07-28T21:55:09.906Z,13.80
2022-07-28T21:57:39.088Z,13.70
2022-07-28T22:00:12.479Z,13.70
2022-07-28T22:03:02.256Z,13.70
2022-07-28T22:05:31.970Z,13.70
2022-07-28T22:08:13.928Z,13.60
2022-07-28T22:10:43.678Z,13.60
2022-07-28T22:13:13.296Z,13.50
2022-07-28T22:15:57.794Z,13.50
2022-07-28T22:18:29.105Z,13.50
2022-07-28T22:21:00.059Z,13.50
2022-07-28T22:23:30.991Z,13.40
2022-07-28T22:26:02.797Z,13.40
2022-07-28T22:28:32.551Z,13.40
2022-07-28T22:31:09.762Z,13.30
2022-07-28T22:33:40.729Z,13.30
2022-07-28T22:36:10.972Z,13.30
2022-07-28T22:38:40.781Z,13.20
2022-07-28T22:41:11.100Z,13.20
2022-07-28T22:43:40.940Z,13.20
2022-07-28T22:46:14.511Z,13.20
2022-07-28T22:48:45.192Z,13.10
2022-07-28T22:51:16.219Z,13.00
2022-07-28T22:53:45.726Z,13.00
2022-07-28T22:56:16.451Z,13.00
2022-07-28T22:59:02.494Z,13.00
2022-07-28T23:01:39.536Z,12.90
2022-07-28T23:04:09.757Z,12.90
2022-07-28T23:06:40.197Z,12.90
2022-07-28T23:09:11.248Z,12.90
2022-07-28T23:11:40.998Z,12.80
2022-07-28T23:14:24.974Z,12.80
2022-07-28T23:19:42.619Z,12.90
2022-07-28T23:22:12.223Z,12.80
2022-07-28T23:24:43.846Z,12.80
2022-07-28T23:27:13.807Z,12.80
2022-07-28T23:29:44.244Z,12.80
2022-07-28T23:32:17.237Z,12.70
2022-07-28T23:34:47.000Z,12.70
2022-07-28T23:37:19.938Z,12.70
2022-07-28T23:39:50.094Z,12.60
2022-07-28T23:42:20.043Z,12.60
2022-07-28T23:44:49.534Z,12.60
2022-07-28T23:47:20.486Z,12.60
2022-07-28T23:49:49.774Z,12.50
2022-07-28T23:52:20.009Z,12.50
2022-07-28T23:54:50.049Z,12.50
2022-07-28T23:57:19.533Z,12.50
2022-07-28T23:59:48.407Z,12.50
